Time;durP1;ratioP1;P1;durP2;ratioP2;P2;SDS_P1;SDS_P2;PMS_P1;PMS_P2;Temp;Humidity;BMP_temperature;BMP_pressure;BME280_temperature;BME280_humidity;BME280_pressure;Samples;Min_cycle;Max_cycle;Signal;HPM_P1;HPM_P2
2023/09/07 00:00:14;;;;;;;0.60;0.55;;;;;;;17.95;97.52;101067.19;4984882;28;20467;-76
2023/09/07 00:02:40;;;;;;;0.90;0.75;;;;;;;18.43;97.89;101149.47;4988469;28;20533;-73
2023/09/07 00:05:09;;;;;;;2.58;1.45;;;;;;;18.42;98.22;101141.53;4988790;28;20061;-74
2023/09/07 00:07:35;;;;;;;0.65;0.65;;;;;;;18.04;98.50;101084.75;4983862;28;20043;-73
2023/09/07 00:10:01;;;;;;;1.60;1.50;;;;;;;17.93;99.13;101069.00;4986619;28;20054;-76
2023/09/07 00:12:27;;;;;;;1.65;1.55;;;;;;;18.55;98.26;101166.94;4980648;28;20610;-75
2023/09/07 00:14:54;;;;;;;2.08;0.95;;;;;;;18.54;98.55;101175.81;4986353;28;20480;-72
2023/09/07 00:17:20;;;;;;;1.75;1.65;;;;;;;18.47;98.58;101163.56;4986763;28;20037;-77
2023/09/07 00:19:48;;;;;;;1.45;1.27;;;;;;;18.42;99.77;101157.47;4981379;28;20096;-73
2023/09/07 00:22:14;;;;;;;0.98;0.90;;;;;;;18.35;99.98;101149.63;4988574;28;20038;-74
2023/09/07 00:24:39;;;;;;;0.73;0.65;;;;;;;18.43;99.37;101160.09;4977451;28;20161;-74
2023/09/07 00:27:07;;;;;;;0.55;0.55;;;;;;;18.46;100.00;101162.69;4978627;28;20046;-76
2023/09/07 00:29:35;;;;;;;1.40;1.30;;;;;;;17.85;100.00;101073.59;4984425;28;20550;-74
2023/09/07 00:32:01;;;;;;;1.05;0.95;;;;;;;17.94;100.00;101081.41;4985733;28;20041;-76
2023/09/07 00:34:27;;;;;;;1.77;1.63;;;;;;;17.89;99.60;101056.72;4985623;28;20051;-78
2023/09/07 00:36:52;;;;;;;0.75;0.70;;;;;;;17.85;99.86;101055.03;4982617;28;20122;-73
2023/09/07 00:39:18;;;;;;;1.48;1.38;;;;;;;18.38;100.00;101169.97;4981735;28;20502;-74
2023/09/07 00:41:43;;;;;;;0.82;0.82;;;;;;;18.22;100.00;101141.94;4990469;28;20112;-73
2023/09/07 00:44:09;;;;;;;0.90;0.88;;;;;;;18.29;100.00;101156.84;4980321;28;20714;-72
2023/09/07 00:46:34;;;;;;;2.97;2.67;;;;;;;18.29;100.00;101156.84;4987497;28;20455;-75
2023/09/07 00:49:00;;;;;;;1.52;1.15;;;;;;;17.86;100.00;101081.56;4985811;28;20061;-75
2023/09/07 00:51:26;;;;;;;0.30;0.30;;;;;;;18.37;100.00;101164.66;4984458;28;20426;-75
2023/09/07 00:53:53;;;;;;;0.95;0.88;;;;;;;17.65;100.00;101056.25;4978656;28;20530;-74
2023/09/07 00:56:19;;;;;;;1.17;1.13;;;;;;;18.16;100.00;101156.19;4985867;28;20038;-74
2023/09/07 00:58:44;;;;;;;0.63;0.63;;;;;;;18.11;100.00;101128.88;4986483;28;20066;-73
2023/09/07 01:01:10;;;;;;;2.10;1.90;;;;;;;17.41;100.00;101036.34;4987194;28;20077;-74
2023/09/07 01:03:36;;;;;;;0.52;0.52;;;;;;;17.95;100.00;101115.00;4983190;28;20050;-75
2023/09/07 01:06:12;;;;;;;0.60;0.60;;;;;;;17.63;100.00;101060.72;4986495;28;20050;-75
2023/09/07 01:08:51;;;;;;;0.88;0.82;;;;;;;18.09;100.00;101158.09;4979708;28;20057;-75
2023/09/07 01:11:26;;;;;;;1.23;0.90;;;;;;;17.55;100.00;101067.94;4977897;28;20033;-77
2023/09/07 01:13:53;;;;;;;0.30;0.28;;;;;;;18.14;100.00;101158.00;4982237;28;20030;-74
2023/09/07 01:16:20;;;;;;;1.20;0.82;;;;;;;18.10;100.00;101173.16;4987212;28;20054;-75
2023/09/07 01:18:47;;;;;;;2.80;1.92;;;;;;;17.93;100.00;101136.28;4987263;28;20050;-75
2023/09/07 01:21:13;;;;;;;1.38;1.13;;;;;;;17.62;100.00;101095.25;4976721;28;20054;-74
2023/09/07 01:23:43;;;;;;;0.52;0.52;;;;;;;18.13;100.00;101180.19;4982275;28;20104;-79
2023/09/07 01:26:09;;;;;;;1.00;0.90;;;;;;;17.49;100.00;101076.03;4981180;28;20026;-73
2023/09/07 01:28:37;;;;;;;0.75;0.52;;;;;;;17.54;100.00;101092.72;4986660;28;20050;-74
2023/09/07 01:31:02;;;;;;;1.10;0.65;;;;;;;17.44;100.00;101069.91;4984419;28;20038;-73
2023/09/07 01:33:27;;;;;;;4.53;1.50;;;;;;;17.98;100.00;101165.41;4980579;28;20358;-76
2023/09/07 01:35:55;;;;;;;0.50;0.50;;;;;;;17.93;100.00;101146.00;4982128;28;20038;-74
2023/09/07 01:38:21;;;;;;;0.32;0.32;;;;;;;17.93;100.00;101154.88;4980642;28;20027;-73
2023/09/07 01:40:46;;;;;;;0.60;0.60;;;;;;;17.96;100.00;101161.00;4985880;28;20487;-75
2023/09/07 01:43:13;;;;;;;1.95;1.85;;;;;;;17.89;100.00;101157.63;4987378;28;20058;-74
2023/09/07 01:45:38;;;;;;;0.75;0.75;;;;;;;17.30;100.00;101047.16;4985397;28;20240;-75
2023/09/07 01:48:07;;;;;;;1.33;1.23;;;;;;;18.02;100.00;101161.78;4983884;28;20038;-75
2023/09/07 01:50:33;;;;;;;0.30;0.30;;;;;;;17.71;100.00;101132.22;4985867;28;20046;-76
2023/09/07 01:53:00;;;;;;;1.27;1.10;;;;;;;17.39;100.00;101088.56;4986195;28;20541;-77
2023/09/07 01:55:27;;;;;;;1.63;1.52;;;;;;;17.90;100.00;101160.22;4987028;28;20054;-75
2023/09/07 01:57:52;;;;;;;0.43;0.43;;;;;;;17.58;100.00;101123.59;4986543;28;20189;-74
2023/09/07 02:00:18;;;;;;;0.30;0.30;;;;;;;17.43;100.00;101100.88;4986229;28;20777;-77
2023/09/07 02:02:43;;;;;;;1.63;1.50;;;;;;;17.83;100.00;101177.16;4979036;28;20050;-74
2023/09/07 02:05:10;;;;;;;0.35;0.35;;;;;;;17.77;100.00;101165.75;4982496;28;20030;-73
2023/09/07 02:07:35;;;;;;;1.35;0.98;;;;;;;17.75;100.00;101156.94;4978714;28;20093;-73
2023/09/07 02:10:03;;;;;;;1.80;1.50;;;;;;;17.29;100.00;101079.00;4985429;28;20054;-73
2023/09/07 02:12:29;;;;;;;0.95;0.90;;;;;;;17.54;100.00;101151.13;4986669;28;20449;-74
2023/09/07 02:14:55;;;;;;;1.05;0.95;;;;;;;17.77;100.00;101171.06;4985417;28;20046;-74
2023/09/07 02:17:21;;;;;;;2.35;1.15;;;;;;;17.12;100.00;101091.69;4978409;28;20045;-73
2023/09/07 02:19:46;;;;;;;1.52;1.20;;;;;;;17.40;100.00;101137.22;4985485;28;20041;-72
2023/09/07 02:22:12;;;;;;;0.95;0.50;;;;;;;17.48;100.00;101164.47;4982602;28;20325;-74
2023/09/07 02:24:37;;;;;;;1.83;1.13;;;;;;;17.18;100.00;101099.53;4984071;28;20055;-75
2023/09/07 02:27:03;;;;;;;0.38;0.38;;;;;;;17.39;100.00;101135.44;4981021;28;20042;-75
2023/09/07 02:29:31;;;;;;;1.90;1.48;;;;;;;17.55;100.00;101166.13;4982963;28;20030;-73
2023/09/07 02:31:57;;;;;;;1.13;0.75;;;;;;;17.22;100.00;101114.50;5011867;28;20429;-75
2023/09/07 02:34:23;;;;;;;1.02;1.00;;;;;;;17.05;100.00;101085.59;4974002;28;20050;-76
2023/09/07 02:36:48;;;;;;;0.82;0.82;;;;;;;17.40;100.00;101143.38;4981526;28;20125;-74
2023/09/07 02:39:13;;;;;;;0.47;0.43;;;;;;;17.51;100.00;101157.34;5010458;28;20053;-74
2023/09/07 02:41:39;;;;;;;1.50;1.35;;;;;;;17.03;100.00;101080.31;4985588;28;20066;-74
2023/09/07 02:44:05;;;;;;;0.75;0.73;;;;;;;17.50;100.00;101167.97;4975568;28;20023;-75
2023/09/07 02:46:31;;;;;;;4.07;2.00;;;;;;;17.39;100.00;101162.84;4983386;28;20042;-74
2023/09/07 02:48:57;;;;;;;2.22;1.67;;;;;;;16.76;100.00;101043.59;4979233;28;20043;-74
2023/09/07 02:51:26;;;;;;;0.65;0.65;;;;;;;17.47;100.00;101174.22;4985943;28;20057;-75
2023/09/07 02:53:54;;;;;;;4.47;1.38;;;;;;;16.90;100.00;101076.09;4983493;28;20057;-74
2023/09/07 02:56:19;;;;;;;1.75;1.30;;;;;;;17.34;100.00;101177.09;4986626;28;20107;-75
2023/09/07 02:58:45;;;;;;;0.88;0.77;;;;;;;17.02;100.00;101122.75;4986102;28;21121;-75
2023/09/07 03:01:10;;;;;;;0.45;0.43;;;;;;;17.28;100.00;101170.13;4985818;28;20446;-74
2023/09/07 03:03:37;;;;;;;0.40;0.40;;;;;;;16.58;100.00;101060.66;4982410;28;20093;-75
2023/09/07 03:06:16;;;;;;;0.85;0.75;;;;;;;17.22;100.00;101172.84;4985959;28;20149;-74
2023/09/07 03:08:42;;;;;;;1.50;0.80;;;;;;;16.79;100.00;101072.75;4997333;28;20043;-72
2023/09/07 03:11:08;;;;;;;0.80;0.80;;;;;;;16.70;100.00;101075.50;4984203;28;20491;-77
2023/09/07 03:13:34;;;;;;;2.05;1.48;;;;;;;17.08;100.00;101142.09;4981390;28;20498;-74
2023/09/07 03:16:03;;;;;;;0.93;0.85;;;;;;;17.32;100.00;101170.94;4987680;28;20104;-76
2023/09/07 03:18:29;;;;;;;0.52;0.50;;;;;;;17.22;100.00;101175.50;4988971;28;20038;-73
2023/09/07 03:20:58;;;;;;;2.25;2.05;;;;;;;17.08;100.00;101150.06;4982407;28;20079;-75
2023/09/07 03:23:23;;;;;;;0.93;0.60;;;;;;;17.30;100.00;101168.28;4988349;28;20043;-74
2023/09/07 03:25:49;;;;;;;0.30;0.30;;;;;;;17.15;100.00;101153.50;4986737;28;20104;-74
2023/09/07 03:28:14;;;;;;;1.77;1.20;;;;;;;16.65;100.00;101083.53;4982566;28;20053;-74
2023/09/07 03:30:40;;;;;;;1.83;1.33;;;;;;;16.51;100.00;101043.97;4983479;28;20046;-76
2023/09/07 03:33:06;;;;;;;1.27;1.17;;;;;;;17.20;100.00;101178.16;4986989;28;20053;-74
2023/09/07 03:35:32;;;;;;;3.22;1.63;;;;;;;17.04;100.00;101163.38;4988116;28;20060;-73
2023/09/07 03:37:57;;;;;;;0.35;0.35;;;;;;;17.24;100.00;101184.31;4982470;28;20777;-73
2023/09/07 03:40:24;;;;;;;0.93;0.68;;;;;;;16.67;100.00;101105.56;4983362;28;20069;-75
2023/09/07 03:42:50;;;;;;;1.17;0.88;;;;;;;16.99;100.00;101170.53;4984895;28;20057;-73
2023/09/07 03:45:16;;;;;;;1.77;1.27;;;;;;;16.96;100.00;101165.28;4983481;28;20047;-75
2023/09/07 03:47:42;;;;;;;2.17;1.90;;;;;;;16.39;100.00;101068.84;4987448;28;20058;-74
2023/09/07 03:50:08;;;;;;;1.80;1.27;;;;;;;16.99;100.00;101158.13;4989165;28;20035;-75
2023/09/07 03:52:33;;;;;;;2.45;1.52;;;;;;;16.54;100.00;101110.16;4988848;28;20054;-75
2023/09/07 03:55:00;;;;;;;0.30;0.30;;;;;;;16.51;100.00;101088.16;4982453;28;20062;-76
2023/09/07 03:57:26;;;;;;;0.40;0.40;;;;;;;17.00;100.00;101162.56;4986268;28;20050;-74
2023/09/07 03:59:51;;;;;;;2.80;1.33;;;;;;;16.57;100.00;101095.97;4987377;28;20537;-74
2023/09/07 04:02:17;;;;;;;1.08;0.63;;;;;;;16.51;100.00;101088.16;4989816;28;20034;-75
2023/09/07 04:04:43;;;;;;;1.90;1.67;;;;;;;17.04;100.00;101172.25;4989453;28;20471;-74
2023/09/07 04:07:08;;;;;;;2.42;2.05;;;;;;;17.20;100.00;101193.22;4984463;28;20433;-74
2023/09/07 04:09:34;;;;;;;0.55;0.40;;;;;;;16.63;100.00;101094.13;4988590;28;20911;-75
2023/09/07 04:12:00;;;;;;;2.35;1.60;;;;;;;16.74;100.00;101115.19;4980879;28;20057;-75
2023/09/07 04:14:25;;;;;;;1.88;0.85;;;;;;;17.27;100.00;101195.75;4981311;28;20089;-75
2023/09/07 04:16:51;;;;;;;1.15;0.88;;;;;;;16.67;100.00;101101.16;4982174;28;20026;-73
2023/09/07 04:19:17;;;;;;;2.35;1.88;;;;;;;16.71;100.00;101098.44;4988791;28;20069;-76
2023/09/07 04:21:42;;;;;;;1.25;0.80;;;;;;;16.65;100.00;101096.78;4987941;28;20038;-75
2023/09/07 04:24:08;;;;;;;1.40;1.10;;;;;;;16.87;100.00;101143.28;4976576;28;20382;-75
2023/09/07 04:26:34;;;;;;;1.02;0.85;;;;;;;17.41;100.00;101200.84;4984047;28;20136;-74
2023/09/07 04:28:59;;;;;;;1.38;1.17;;;;;;;17.26;100.00;101180.75;4988567;28;20045;-73
2023/09/07 04:31:27;;;;;;;1.65;1.35;;;;;;;17.40;100.00;101208.84;4984599;28;20788;-76
2023/09/07 04:33:53;;;;;;;0.90;0.73;;;;;;;17.44;100.00;101199.91;4988155;28;20065;-75
2023/09/07 04:36:19;;;;;;;6.07;1.33;;;;;;;16.88;100.00;101102.66;4986417;28;20061;-73
2023/09/07 04:38:44;;;;;;;2.38;2.20;;;;;;;16.90;100.00;101122.94;4981378;28;20038;-76
2023/09/07 04:41:12;;;;;;;6.75;2.00;;;;;;;17.51;100.00;101209.53;4987344;28;20026;-73
2023/09/07 04:43:40;;;;;;;0.63;0.50;;;;;;;17.29;100.00;101183.34;4987099;28;20046;-74
2023/09/07 04:46:06;;;;;;;2.17;0.82;;;;;;;16.77;100.00;101093.06;4987316;28;20050;-73
2023/09/07 04:48:34;;;;;;;1.65;1.42;;;;;;;17.14;100.00;101141.16;4987568;28;20085;-74
2023/09/07 04:51:03;;;;;;;0.63;0.63;;;;;;;17.35;100.00;101173.53;4985410;28;20035;-73
2023/09/07 04:53:32;;;;;;;0.65;0.60;;;;;;;17.65;100.00;101217.25;4979713;28;20182;-74
2023/09/07 04:55:58;;;;;;;2.80;2.15;;;;;;;16.19;100.00;100983.50;4986222;28;20553;-76
2023/09/07 04:58:24;;;;;;;2.58;1.83;;;;;;;17.71;100.00;101222.47;4986919;28;20062;-76
2023/09/07 05:00:49;;;;;;;2.55;1.73;;;;;;;17.39;100.00;101149.56;4987007;28;20042;-75
2023/09/07 05:03:15;;;;;;;0.93;0.82;;;;;;;17.92;100.00;101227.47;4987372;28;20039;-74
2023/09/07 05:05:43;;;;;;;0.45;0.43;;;;;;;18.59;100.00;101199.63;4979079;28;20062;-73
2023/09/07 05:08:09;;;;;;;0.40;0.40;;;;;;;18.69;100.00;101138.28;4982105;28;20041;-73
2023/09/07 05:10:35;;;;;;;0.75;0.75;;;;;;;18.62;100.00;101139.31;4988436;28;20042;-74
2023/09/07 05:13:01;;;;;;;0.47;0.45;;;;;;;19.92;98.65;101241.00;4980708;28;20591;-74
2023/09/07 05:15:26;;;;;;;1.52;1.42;;;;;;;20.32;88.50;101144.00;5012604;28;20109;-77
2023/09/07 05:17:52;;;;;;;0.85;0.40;;;;;;;20.53;88.68;101217.16;4985202;28;20046;-74
2023/09/07 05:20:18;;;;;;;1.05;0.75;;;;;;;20.03;86.81;101145.69;4984835;28;21596;-75
2023/09/07 05:22:43;;;;;;;1.27;0.75;;;;;;;20.56;85.97;101164.66;4986863;28;20066;-75
2023/09/07 05:25:09;;;;;;;5.57;2.30;;;;;;;21.46;75.86;101158.31;4982114;28;20061;-75
2023/09/07 05:27:35;;;;;;;1.23;0.85;;;;;;;20.79;79.37;101163.97;4981788;28;20513;-74
2023/09/07 05:30:02;;;;;;;0.68;0.65;;;;;;;21.66;73.53;101143.41;4983361;28;20046;-74
2023/09/07 05:32:27;;;;;;;4.15;0.43;;;;;;;21.77;70.07;101161.72;4979792;28;20030;-78
2023/09/07 05:34:53;;;;;;;1.60;1.05;;;;;;;21.62;71.99;101158.66;4983479;28;20707;-76
2023/09/07 05:37:18;;;;;;;2.25;1.70;;;;;;;23.04;65.37;101157.06;4979842;28;20054;-75
2023/09/07 05:39:44;;;;;;;1.13;1.08;;;;;;;22.77;65.61;101208.03;4977528;28;20047;-76
2023/09/07 05:42:10;;;;;;;0.98;0.90;;;;;;;23.28;63.08;101258.78;4977485;28;20666;-75
2023/09/07 05:44:35;;;;;;;0.75;0.70;;;;;;;22.61;66.20;101254.16;4985062;28;20034;-77
2023/09/07 05:47:02;;;;;;;1.80;1.70;;;;;;;22.76;64.83;101216.13;4985518;28;20450;-76
2023/09/07 05:49:27;;;;;;;0.50;0.50;;;;;;;22.77;62.68;101226.75;5007722;28;20051;-77
2023/09/07 05:51:53;;;;;;;2.08;1.35;;;;;;;22.62;65.10;101270.16;4985400;28;20237;-76
2023/09/07 05:54:22;;;;;;;1.23;1.13;;;;;;;22.38;64.70;101169.41;4981362;28;20084;-76
2023/09/07 05:56:47;;;;;;;0.65;0.40;;;;;;;23.60;61.82;101261.03;4983975;28;20049;-77
2023/09/07 05:59:13;;;;;;;0.85;0.85;;;;;;;23.15;61.43;101178.91;4977581;28;20414;-76
2023/09/07 06:01:39;;;;;;;0.82;0.82;;;;;;;24.36;59.09;101253.38;4979099;28;20062;-77
2023/09/07 06:04:05;;;;;;;0.77;0.77;;;;;;;22.89;60.86;101211.16;4975935;28;20047;-77
2023/09/07 06:06:30;;;;;;;0.82;0.80;;;;;;;23.11;61.01;101173.78;4981330;28;20197;-77
2023/09/07 06:08:56;;;;;;;0.68;0.68;;;;;;;22.86;59.99;101129.19;4977750;28;20085;-79
2023/09/07 06:11:21;;;;;;;4.47;2.55;;;;;;;23.45;61.35;101261.66;4976736;28;20486;-77
2023/09/07 06:13:47;;;;;;;0.63;0.63;;;;;;;23.48;61.74;101264.19;4984339;28;20422;-76
2023/09/07 06:16:12;;;;;;;1.48;1.38;;;;;;;23.58;60.81;101237.94;4980950;28;20769;-75
2023/09/07 06:18:38;;;;;;;1.35;1.05;;;;;;;23.47;60.44;101277.66;4996925;28;20062;-76
2023/09/07 06:21:05;;;;;;;0.90;0.90;;;;;;;23.51;60.78;101198.94;4981226;28;20046;-77
2023/09/07 06:23:31;;;;;;;0.43;0.43;;;;;;;22.81;61.80;101198.09;4978638;28;20038;-75
2023/09/07 06:25:57;;;;;;;0.60;0.60;;;;;;;22.25;64.92;101191.25;4994851;28;20375;-75
2023/09/07 06:28:22;;;;;;;0.28;0.28;;;;;;;22.47;66.17;101190.44;4983591;28;20046;-75
2023/09/07 06:30:48;;;;;;;0.60;0.55;;;;;;;22.27;67.13;101225.97;4977834;28;20100;-75
2023/09/07 06:33:13;;;;;;;0.63;0.57;;;;;;;21.91;69.88;101192.41;4984697;28;20074;-75
2023/09/07 06:35:39;;;;;;;0.55;0.55;;;;;;;22.26;71.78;101281.22;4978499;28;20080;-74
2023/09/07 06:38:04;;;;;;;5.28;1.13;;;;;;;22.47;77.07;101279.56;4978418;28;20407;-76
2023/09/07 06:40:30;;;;;;;1.80;1.15;;;;;;;22.43;75.34;101282.41;4982220;28;20069;-77
2023/09/07 06:42:57;;;;;;;1.88;1.65;;;;;;;22.34;76.63;101281.84;4983499;28;20138;-74
2023/09/07 06:45:25;;;;;;;0.45;0.45;;;;;;;22.26;79.00;101195.66;4979750;28;20703;-75
2023/09/07 06:47:51;;;;;;;1.00;0.95;;;;;;;22.95;74.18;101273.38;4986921;28;20051;-75
2023/09/07 06:50:17;;;;;;;0.45;0.45;;;;;;;23.03;75.84;101183.91;4988100;28;20038;-75
2023/09/07 06:52:42;;;;;;;1.63;1.33;;;;;;;23.23;73.15;101245.56;4990598;28;20038;-76
2023/09/07 06:55:08;;;;;;;1.17;0.90;;;;;;;23.34;71.24;101250.47;4980126;28;20034;-76
2023/09/07 06:57:33;;;;;;;0.77;0.73;;;;;;;23.52;71.35;101201.53;4984568;28;20050;-76
2023/09/07 06:59:59;;;;;;;0.50;0.50;;;;;;;23.45;67.37;101272.38;4982072;28;20482;-74
2023/09/07 07:02:25;;;;;;;0.32;0.20;;;;;;;24.12;73.04;101282.16;4988079;28;20034;-73
2023/09/07 07:04:50;;;;;;;0.68;0.45;;;;;;;23.63;71.30;101211.81;4991222;28;20034;-75
2023/09/07 07:07:17;;;;;;;0.82;0.80;;;;;;;23.83;64.20;101301.25;4992623;28;20118;-74
2023/09/07 07:09:42;;;;;;;0.93;0.85;;;;;;;23.25;66.08;101205.31;4993203;28;20042;-74
2023/09/07 07:12:08;;;;;;;0.55;0.55;;;;;;;23.94;65.62;101283.78;4988120;28;20186;-74
2023/09/07 07:14:33;;;;;;;2.22;1.40;;;;;;;23.74;68.61;101220.31;4988774;28;20138;-75
2023/09/07 07:16:59;;;;;;;1.10;0.98;;;;;;;23.97;63.81;101239.88;4987133;28;20038;-75
2023/09/07 07:19:24;;;;;;;0.50;0.50;;;;;;;24.07;65.56;101261.81;4990729;28;20069;-72
2023/09/07 07:21:50;;;;;;;0.20;0.20;;;;;;;24.10;65.29;101280.47;4976703;28;20129;-74
2023/09/07 07:24:16;;;;;;;1.63;0.80;;;;;;;24.31;61.08;101271.50;4971798;28;20333;-74
2023/09/07 07:26:41;;;;;;;1.13;1.02;;;;;;;23.96;65.24;101187.22;4979123;28;20050;-74
2023/09/07 07:29:06;;;;;;;1.17;0.98;;;;;;;24.41;62.59;101278.19;4970660;28;20559;-73
2023/09/07 07:31:32;;;;;;;1.00;0.95;;;;;;;24.64;62.81;101281.72;4983431;28;20046;-73
2023/09/07 07:33:59;;;;;;;0.10;0.10;;;;;;;24.09;59.12;101201.84;4984516;28;20133;-75
2023/09/07 07:36:24;;;;;;;1.95;1.85;;;;;;;24.64;61.20;101284.41;4981605;28;20089;-74
2023/09/07 07:38:49;;;;;;;0.93;0.52;;;;;;;23.90;59.90;101196.38;4983867;28;20043;-75
2023/09/07 07:41:15;;;;;;;1.70;1.60;;;;;;;23.91;58.60;101283.94;4984913;28;20034;-73
2023/09/07 07:43:40;;;;;;;0.52;0.52;;;;;;;23.77;58.60;101267.56;4981288;28;20798;-74
2023/09/07 07:46:08;;;;;;;2.30;1.52;;;;;;;24.25;58.62;101269.06;4987309;28;20038;-76
2023/09/07 07:48:35;;;;;;;0.47;0.47;;;;;;;24.53;58.38;101257.16;4988546;28;20105;-74
2023/09/07 07:51:04;;;;;;;0.50;0.50;;;;;;;24.85;60.45;101261.94;4987486;28;20053;-79
2023/09/07 07:53:30;;;;;;;2.70;1.98;;;;;;;24.85;57.87;101270.00;4985553;28;20435;-76
2023/09/07 07:55:57;;;;;;;2.35;2.15;;;;;;;24.44;56.64;101177.91;4985375;28;20034;-74
2023/09/07 07:58:22;;;;;;;4.65;1.83;;;;;;;24.77;57.60;101218.47;4982997;28;20247;-72
2023/09/07 08:00:48;;;;;;;1.70;1.48;;;;;;;24.70;54.65;101267.13;4987636;28;20725;-72
2023/09/07 08:03:14;;;;;;;0.40;0.40;;;;;;;23.96;56.56;101172.00;4987429;28;20482;-72
2023/09/07 08:05:41;;;;;;;0.43;0.43;;;;;;;24.82;55.67;101266.59;4983147;28;20458;-74
2023/09/07 08:08:07;;;;;;;0.80;0.80;;;;;;;24.55;54.37;101189.06;4984702;28;20042;-73
2023/09/07 08:10:37;;;;;;;1.02;0.93;;;;;;;24.99;56.40;101207.59;4987006;28;20072;-75
2023/09/07 08:13:03;;;;;;;0.45;0.45;;;;;;;25.30;55.69;101254.50;5016597;28;20050;-75
2023/09/07 08:15:29;;;;;;;1.20;1.10;;;;;;;25.32;55.39;101255.31;4983358;28;20042;-75
2023/09/07 08:17:56;;;;;;;0.20;0.20;;;;;;;25.32;54.68;101249.06;4987272;28;20058;-74
2023/09/07 08:20:21;;;;;;;0.63;0.63;;;;;;;25.13;53.67;101188.13;4986837;28;20062;-74
2023/09/07 08:22:47;;;;;;;0.13;0.13;;;;;;;25.03;53.28;101166.22;4986390;28;20033;-74
2023/09/07 08:25:13;;;;;;;3.15;1.30;;;;;;;25.42;51.81;101240.47;4984082;28;20046;-74
2023/09/07 08:27:46;;;;;;;1.27;1.17;;;;;;;25.45;53.69;101256.47;4983728;28;20610;-74
2023/09/07 08:30:15;;;;;;;3.75;2.10;;;;;;;24.58;53.05;101107.53;4987002;28;20039;-74
2023/09/07 08:32:41;;;;;;;1.15;1.08;;;;;;;25.01;53.23;101186.06;4988510;28;20050;-74
2023/09/07 08:35:12;;;;;;;1.50;1.40;;;;;;;25.49;53.21;101225.78;4988840;28;20034;-75
2023/09/07 08:37:38;;;;;;;5.95;1.35;;;;;;;25.32;52.72;101171.16;4979498;28;20887;-75
2023/09/07 08:40:04;;;;;;;0.57;0.50;;;;;;;25.05;50.27;101168.81;4985665;28;20081;-75
2023/09/07 08:42:30;;;;;;;1.58;1.30;;;;;;;25.46;51.52;101254.66;4980304;28;20116;-74
2023/09/07 08:44:59;;;;;;;0.75;0.57;;;;;;;25.47;51.93;101189.19;4985991;28;20690;-75
2023/09/07 08:47:29;;;;;;;2.38;1.58;;;;;;;25.90;51.78;101252.47;4985503;28;20041;-73
2023/09/07 08:49:55;;;;;;;1.38;1.27;;;;;;;25.95;51.98;101236.09;4986642;28;20053;-75
2023/09/07 08:52:21;;;;;;;0.45;0.45;;;;;;;26.09;48.83;101240.75;4989173;28;20475;-75
2023/09/07 08:54:48;;;;;;;0.80;0.80;;;;;;;25.37;51.25;101139.56;4985297;28;20034;-74
2023/09/07 08:57:14;;;;;;;0.70;0.70;;;;;;;25.13;48.02;101177.41;4986449;28;20057;-75
2023/09/07 08:59:40;;;;;;;1.23;1.13;;;;;;;25.72;48.21;101250.66;4981900;28;20122;-73
2023/09/07 09:02:12;;;;;;;1.48;1.38;;;;;;;25.85;49.97;101241.03;4986484;28;20038;-74
2023/09/07 09:04:38;;;;;;;0.60;0.60;;;;;;;26.18;48.20;101224.16;4979338;28;20502;-75
2023/09/07 09:07:04;;;;;;;1.95;1.85;;;;;;;25.70;47.58;101175.44;4985567;28;20626;-75
2023/09/07 09:09:30;;;;;;;0.22;0.20;;;;;;;25.42;48.07;101204.66;4982850;28;20097;-75
2023/09/07 09:12:06;;;;;;;2.50;1.65;;;;;;;25.69;48.24;101234.69;4984198;28;20046;-74
2023/09/07 09:14:32;;;;;;;1.30;1.20;;;;;;;25.98;48.82;101233.25;4982828;28;20130;-74
2023/09/07 09:16:57;;;;;;;0.60;0.50;;;;;;;25.68;47.57;101153.19;4996182;28;20877;-73
2023/09/07 09:19:33;;;;;;;0.50;0.50;;;;;;;25.84;47.06;101164.00;4985983;28;20511;-75
2023/09/07 09:21:59;;;;;;;3.58;3.22;;;;;;;26.21;46.71;101226.66;4984611;28;20077;-77
2023/09/07 09:24:25;;;;;;;0.30;0.30;;;;;;;26.18;48.89;101199.06;4982553;28;20133;-73
2023/09/07 09:26:50;;;;;;;1.30;1.20;;;;;;;25.88;47.83;101159.38;4985761;28;20152;-74
2023/09/07 09:29:16;;;;;;;2.50;1.38;;;;;;;26.42;47.50;101224.66;4991101;28;20038;-74
2023/09/07 09:31:42;;;;;;;1.67;1.17;;;;;;;25.78;46.57;101126.69;4984032;28;20041;-75
2023/09/07 09:34:08;;;;;;;1.00;0.90;;;;;;;25.25;47.22;101119.53;4978853;28;20046;-74
2023/09/07 09:36:35;;;;;;;19.55;1.15;;;;;;;26.19;48.17;101195.41;4984747;28;20401;-74
2023/09/07 09:39:00;;;;;;;0.45;0.45;;;;;;;25.22;47.14;101109.81;4983801;28;20043;-75
2023/09/07 09:41:27;;;;;;;2.30;2.03;;;;;;;25.58;47.10;101191.34;4984408;28;20033;-73
2023/09/07 09:43:55;;;;;;;1.15;1.08;;;;;;;25.96;49.79;101189.41;4983958;28;20069;-74
2023/09/07 09:46:22;;;;;;;0.30;0.30;;;;;;;26.10;50.04;101196.75;4985809;28;20046;-75
2023/09/07 09:48:48;;;;;;;2.72;1.80;;;;;;;25.43;49.10;101094.44;4970516;28;20047;-75
2023/09/07 09:51:14;;;;;;;0.52;0.52;;;;;;;26.05;47.09;101188.06;4983786;28;20502;-74
2023/09/07 09:53:42;;;;;;;0.95;0.93;;;;;;;26.16;48.09;101193.75;4985165;28;20065;-76
2023/09/07 09:56:07;;;;;;;0.65;0.65;;;;;;;26.45;46.78;101192.19;4985272;28;20089;-75
2023/09/07 09:58:33;;;;;;;2.25;1.42;;;;;;;26.34;49.14;101181.16;4985029;28;20137;-76
2023/09/07 10:01:00;;;;;;;0.50;0.50;;;;;;;26.50;46.29;101187.44;4983243;28;20064;-75
2023/09/07 10:03:37;;;;;;;0.43;0.43;;;;;;;26.47;46.79;101189.44;4977732;28;20064;-75
2023/09/07 10:06:10;;;;;;;1.55;1.20;;;;;;;25.90;47.06;101187.91;4981674;28;20081;-77
2023/09/07 10:08:35;;;;;;;2.17;1.75;;;;;;;25.82;46.82;101208.91;4982381;28;20054;-75
2023/09/07 10:11:08;;;;;;;0.80;0.80;;;;;;;25.78;46.61;101158.94;4978439;28;20035;-79
2023/09/07 10:13:34;;;;;;;0.40;0.40;;;;;;;25.53;46.79;101076.00;4983178;28;20108;-75
2023/09/07 10:16:07;;;;;;;1.30;1.20;;;;;;;25.92;47.42;101160.97;4984794;28;20145;-75
2023/09/07 10:18:39;;;;;;;2.13;1.85;;;;;;;25.90;46.16;101099.16;4985882;28;20144;-76
2023/09/07 10:21:06;;;;;;;0.77;0.77;;;;;;;25.88;46.31;101116.34;4981714;28;20130;-77
2023/09/07 10:23:37;;;;;;;0.20;0.20;;;;;;;26.02;47.16;101099.47;4990241;28;20109;-75
2023/09/07 10:26:04;;;;;;;1.50;1.33;;;;;;;26.11;48.38;101075.63;4984108;28;20037;-75
2023/09/07 10:28:30;;;;;;;1.05;0.90;;;;;;;25.99;46.83;101029.69;4982269;28;20166;-74
2023/09/07 10:31:06;;;;;;;0.73;0.65;;;;;;;26.20;47.36;101090.41;4973887;28;20047;-74
2023/09/07 10:33:34;;;;;;;1.95;1.75;;;;;;;26.35;46.22;101106.66;4981166;28;20044;-75
2023/09/07 10:36:01;;;;;;;0.82;0.70;;;;;;;26.92;47.38;101124.09;4983281;28;20109;-74
2023/09/07 10:38:27;;;;;;;0.93;0.85;;;;;;;27.51;45.74;101172.84;4990422;28;20047;-74
2023/09/07 10:41:00;;;;;;;0.70;0.63;;;;;;;27.42;46.22;101178.75;4984596;28;20129;-75
2023/09/07 10:43:27;;;;;;;0.10;0.10;;;;;;;27.02;45.14;101172.06;4980161;28;20100;-74
2023/09/07 10:45:54;;;;;;;1.70;1.35;;;;;;;27.07;45.11;101143.03;4983365;28;20065;-74
2023/09/07 10:48:20;;;;;;;0.88;0.80;;;;;;;27.58;45.24;101104.09;4977154;28;20106;-75
2023/09/07 10:50:46;;;;;;;0.68;0.65;;;;;;;27.63;45.06;101173.94;4984373;28;20042;-75
2023/09/07 10:53:14;;;;;;;0.22;0.22;;;;;;;27.31;47.00;101148.88;4985793;28;20019;-74
2023/09/07 10:55:41;;;;;;;2.10;0.88;;;;;;;27.49;48.04;101155.00;4983836;28;20041;-74
2023/09/07 10:58:08;;;;;;;0.82;0.82;;;;;;;27.58;45.95;101124.78;4982585;28;20065;-74
2023/09/07 11:00:34;;;;;;;1.90;1.45;;;;;;;27.19;45.63;101077.66;4988992;28;20081;-75
2023/09/07 11:03:07;;;;;;;0.82;0.82;;;;;;;28.14;44.67;101125.00;4982549;28;20058;-75
2023/09/07 11:05:35;;;;;;;2.42;1.95;;;;;;;28.39;45.54;101144.09;4984863;28;20104;-75
2023/09/07 11:08:01;;;;;;;1.42;0.52;;;;;;;28.10;43.85;101080.31;4985070;28;20038;-75
2023/09/07 11:10:28;;;;;;;2.15;1.00;;;;;;;28.11;45.41;101130.59;4981550;28;20081;-75
2023/09/07 11:12:53;;;;;;;1.73;1.42;;;;;;;27.77;43.31;101057.13;4984107;28;20057;-75
2023/09/07 11:15:19;;;;;;;0.77;0.77;;;;;;;28.12;42.26;101114.31;4983510;28;20047;-75
2023/09/07 11:17:45;;;;;;;0.50;0.40;;;;;;;28.83;43.10;101142.25;4985145;28;20101;-73